Time;durP1;ratioP1;P1;durP2;ratioP2;P2;SDS_P1;SDS_P2;PMS_P1;PMS_P2;Temp;Humidity;BMP_temperature;BMP_pressure;BME280_temperature;BME280_humidity;BME280_pressure;Samples;Min_cycle;Max_cycle;Signal;HPM_P1;HPM_P2
2022/02/15 00:00:51;;;;;;;5.43;2.70;;;;;;;6.04;81.73;100430.06;4989073;28;20227;-74
2022/02/15 00:03:17;;;;;;;4.60;2.53;;;;;;;6.06;81.17;100418.25;4988963;28;20212;-74
2022/02/15 00:05:42;;;;;;;5.97;2.90;;;;;;;6.01;81.41;100427.41;4990189;28;20194;-75
2022/02/15 00:08:07;;;;;;;8.83;3.13;;;;;;;5.90;81.72;100424.53;4988849;28;20623;-75
2022/02/15 00:10:33;;;;;;;6.70;3.03;;;;;;;5.87;82.46;100423.59;4990279;28;20542;-75
2022/02/15 00:13:02;;;;;;;8.17;3.10;;;;;;;5.82;82.50;100423.47;4990091;28;20242;-75
2022/02/15 00:15:28;;;;;;;4.93;2.93;;;;;;;5.80;82.39;100426.75;4990149;28;20233;-74
2022/02/15 00:17:53;;;;;;;5.43;2.40;;;;;;;5.77;81.95;100419.88;4989910;28;20191;-74
2022/02/15 00:20:18;;;;;;;9.07;3.23;;;;;;;5.74;82.48;100413.81;4990207;28;20307;-74
2022/02/15 00:22:44;;;;;;;6.23;2.70;;;;;;;5.72;82.44;100416.34;4990154;28;20254;-75
2022/02/15 00:25:09;;;;;;;6.37;3.13;;;;;;;5.76;82.39;100412.22;4990242;28;20274;-75
2022/02/15 00:27:35;;;;;;;7.33;2.60;;;;;;;5.78;82.11;100424.16;4990067;28;20199;-75
2022/02/15 00:30:00;;;;;;;7.37;3.03;;;;;;;5.87;81.76;100428.66;5004286;28;20226;-74
2022/02/15 00:32:25;;;;;;;7.67;2.50;;;;;;;5.84;82.58;100426.06;5005029;28;20776;-74
2022/02/15 00:34:51;;;;;;;6.33;2.70;;;;;;;5.77;82.58;100432.59;4989965;28;20576;-74
2022/02/15 00:37:16;;;;;;;9.47;3.00;;;;;;;5.77;82.29;100429.16;4988715;28;20180;-75
2022/02/15 00:39:42;;;;;;;7.83;3.13;;;;;;;5.79;81.99;100428.41;4988322;28;20219;-74
2022/02/15 00:42:08;;;;;;;7.23;2.73;;;;;;;5.77;82.56;100422.44;4988517;28;20219;-74
2022/02/15 00:44:34;;;;;;;10.83;2.77;;;;;;;5.84;82.47;100420.97;4989935;28;20605;-74
2022/02/15 00:47:00;;;;;;;6.00;2.77;;;;;;;5.86;82.43;100432.03;4990109;28;20715;-75
2022/02/15 00:49:25;;;;;;;8.23;2.97;;;;;;;5.88;82.33;100436.34;4988596;28;20180;-75
2022/02/15 00:51:50;;;;;;;7.67;3.20;;;;;;;5.92;82.30;100438.16;4990358;28;20556;-74
2022/02/15 00:54:16;;;;;;;5.67;2.37;;;;;;;5.95;82.65;100433.16;4993994;28;20574;-75
2022/02/15 00:56:42;;;;;;;5.53;2.90;;;;;;;6.01;82.74;100432.50;4993633;28;20192;-75
2022/02/15 00:59:09;;;;;;;12.10;4.20;;;;;;;6.07;82.05;100428.47;4993347;28;20191;-75
2022/02/15 01:01:37;;;;;;;6.03;2.60;;;;;;;6.09;82.55;100436.16;4992070;28;20304;-74
2022/02/15 01:04:03;;;;;;;5.17;2.33;;;;;;;6.11;82.42;100440.47;4992346;28;20195;-74
2022/02/15 01:06:29;;;;;;;7.53;2.73;;;;;;;6.17;81.93;100443.16;4993627;28;20195;-75
2022/02/15 01:08:54;;;;;;;9.20;2.60;;;;;;;6.28;82.04;100446.91;4993288;28;20270;-74
2022/02/15 01:11:20;;;;;;;9.43;2.93;;;;;;;6.28;81.80;100431.66;4993208;28;20204;-75
2022/02/15 01:13:45;;;;;;;7.30;2.50;;;;;;;6.28;82.43;100434.22;4991975;28;20235;-74
2022/02/15 01:16:12;;;;;;;6.63;3.03;;;;;;;6.29;82.05;100428.31;4991730;28;20215;-75
2022/02/15 01:18:37;;;;;;;6.73;2.37;;;;;;;6.31;82.02;100433.44;4992756;28;20195;-75
2022/02/15 01:21:03;;;;;;;6.10;2.43;;;;;;;6.32;81.98;100427.53;5007965;28;20211;-75
2022/02/15 01:23:28;;;;;;;10.03;2.80;;;;;;;6.39;81.04;100430.28;5008169;28;20187;-75
2022/02/15 01:25:54;;;;;;;5.93;2.60;;;;;;;6.36;81.89;100427.63;4975485;28;20204;-74
2022/02/15 01:28:19;;;;;;;6.53;2.83;;;;;;;6.35;81.94;100436.09;4991471;28;20198;-75
2022/02/15 01:30:46;;;;;;;5.50;3.17;;;;;;;6.39;81.76;100429.41;4991670;28;20215;-75
2022/02/15 01:33:11;;;;;;;4.80;3.07;;;;;;;6.46;81.09;100423.69;4991641;28;20633;-74
2022/02/15 01:35:37;;;;;;;10.37;3.20;;;;;;;6.50;81.33;100422.97;4991543;28;20184;-74
2022/02/15 01:38:04;;;;;;;6.20;3.37;;;;;;;6.62;80.49;100429.25;4991449;28;20188;-74
2022/02/15 01:40:29;;;;;;;9.17;3.27;;;;;;;6.72;79.95;100423.59;4975231;28;20239;-74
2022/02/15 01:42:55;;;;;;;6.57;3.70;;;;;;;6.76;79.95;100439.81;4975131;28;20899;-74
2022/02/15 01:45:20;;;;;;;7.43;3.37;;;;;;;6.86;79.49;100431.63;4991537;28;20187;-74
2022/02/15 01:47:47;;;;;;;5.67;3.00;;;;;;;6.89;79.68;100426.59;4991348;28;20241;-74
2022/02/15 01:50:13;;;;;;;6.77;3.30;;;;;;;6.94;79.51;100425.91;4992512;28;20176;-74
2022/02/15 01:52:39;;;;;;;7.13;3.47;;;;;;;7.07;79.18;100417.78;5007659;28;20208;-75
2022/02/15 01:55:07;;;;;;;8.00;3.80;;;;;;;7.27;77.26;100420.84;4975077;28;20198;-75
2022/02/15 01:57:33;;;;;;;6.13;3.43;;;;;;;7.30;77.08;100424.34;4991123;28;20192;-75
2022/02/15 02:00:10;;;;;;;8.93;4.20;;;;;;;7.38;76.88;100417.72;4990966;28;20664;-74
2022/02/15 02:02:45;;;;;;;6.57;3.40;;;;;;;7.45;76.35;100424.72;4991201;28;20211;-74
2022/02/15 02:08:02;;;;;;;6.97;3.63;;;;;;;7.49;76.99;100423.97;4991271;28;20187;-74
2022/02/15 02:10:31;;;;;;;8.43;3.73;;;;;;;7.50;76.76;100428.22;4991436;28;20287;-75
2022/02/15 02:12:58;;;;;;;11.43;4.10;;;;;;;7.59;76.60;100422.47;5007252;28;20294;-75
2022/02/15 02:15:25;;;;;;;6.60;3.60;;;;;;;7.59;75.71;100428.47;4990698;28;20278;-75
2022/02/15 02:18:11;;;;;;;7.17;3.83;;;;;;;7.59;76.67;100419.94;4990696;28;20195;-74
2022/02/15 02:20:39;;;;;;;8.20;4.07;;;;;;;7.58;76.01;100421.66;4990852;28;20652;-74
2022/02/15 02:23:08;;;;;;;8.33;4.10;;;;;;;7.57;76.00;100419.06;4990555;28;20759;-75
2022/02/15 02:25:34;;;;;;;8.60;4.03;;;;;;;7.53;75.95;100410.50;4990693;28;20270;-74
2022/02/15 02:28:02;;;;;;;6.43;4.00;;;;;;;7.55;76.51;100411.38;4990391;28;20237;-74
2022/02/15 02:30:27;;;;;;;9.57;4.10;;;;;;;7.53;75.85;100407.06;5006859;28;20179;-75
2022/02/15 02:32:57;;;;;;;11.20;4.63;;;;;;;7.44;76.22;100410.25;4990387;28;20612;-74
2022/02/15 02:35:22;;;;;;;7.23;4.03;;;;;;;7.47;76.54;100417.13;4990430;28;20192;-75
2022/02/15 02:37:49;;;;;;;9.03;4.83;;;;;;;7.47;77.05;100417.13;4990182;28;20192;-74
2022/02/15 02:40:15;;;;;;;12.60;4.40;;;;;;;7.50;76.50;100418.03;4990265;28;20619;-74
2022/02/15 02:42:42;;;;;;;12.60;4.60;;;;;;;7.49;77.03;100420.53;4990181;28;20212;-75
2022/02/15 02:45:16;;;;;;;9.37;4.43;;;;;;;7.54;75.98;100431.72;5006757;28;20192;-75
2022/02/15 02:47:43;;;;;;;5.77;4.73;;;;;;;7.59;76.20;100431.00;4990258;28;20192;-74
2022/02/15 02:50:09;;;;;;;10.40;5.33;;;;;;;7.64;75.64;100439.63;5006367;28;20179;-74
2022/02/15 02:52:35;;;;;;;13.57;5.40;;;;;;;7.65;76.05;100436.25;4989997;28;20215;-74
2022/02/15 02:55:01;;;;;;;9.03;4.97;;;;;;;7.66;76.21;100432.00;5006316;28;20187;-75
2022/02/15 02:57:27;;;;;;;7.47;5.33;;;;;;;7.62;76.62;100431.09;4989975;28;20188;-74
2022/02/15 02:59:55;;;;;;;7.07;5.00;;;;;;;7.65;77.05;100443.03;4989602;28;20211;-75
2022/02/15 03:02:31;;;;;;;9.50;5.50;;;;;;;7.62;76.44;100441.28;4990017;28;20610;-74
2022/02/15 03:04:56;;;;;;;9.07;5.30;;;;;;;7.65;76.44;100453.22;4989861;28;20202;-74
2022/02/15 03:07:22;;;;;;;9.30;5.43;;;;;;;7.70;75.33;100444.00;4989904;28;20175;-75
2022/02/15 03:09:47;;;;;;;11.27;5.70;;;;;;;7.73;75.61;100452.59;4989622;28;20257;-74
2022/02/15 03:12:14;;;;;;;6.43;5.20;;;;;;;7.70;76.60;100451.66;4989680;28;20267;-74
2022/02/15 03:14:43;;;;;;;7.73;5.20;;;;;;;7.63;76.09;100460.84;5005804;28;20242;-75
2022/02/15 03:17:09;;;;;;;8.47;5.60;;;;;;;7.61;76.39;100459.06;4989963;28;20723;-74
2022/02/15 03:19:35;;;;;;;7.70;5.43;;;;;;;7.56;76.85;100470.84;4990362;28;20220;-75
2022/02/15 03:22:01;;;;;;;11.60;6.00;;;;;;;7.60;76.13;100478.56;4989635;28;20210;-75
2022/02/15 03:24:28;;;;;;;11.17;6.00;;;;;;;7.66;76.90;100475.34;4989657;28;20861;-74
2022/02/15 03:26:56;;;;;;;8.37;5.80;;;;;;;7.62;76.75;100484.59;5005927;28;20283;-74
2022/02/15 03:29:22;;;;;;;8.70;6.03;;;;;;;7.62;78.04;100479.50;5005645;28;20180;-75
2022/02/15 03:31:48;;;;;;;9.77;5.87;;;;;;;7.64;77.70;100485.47;5005680;28;20217;-75
2022/02/15 03:34:14;;;;;;;8.00;6.50;;;;;;;7.66;77.00;100486.41;4989443;28;20278;-74
2022/02/15 03:36:40;;;;;;;9.97;5.97;;;;;;;7.64;77.70;100502.47;4989275;28;20684;-75
2022/02/15 03:39:09;;;;;;;10.63;6.53;;;;;;;7.67;76.75;100500.84;5005426;28;20192;-74
2022/02/15 03:44:25;;;;;;;8.87;7.00;;;;;;;7.57;78.58;100498.03;4989317;28;20204;-75
2022/02/15 03:46:53;;;;;;;9.43;6.77;;;;;;;7.50;79.03;100512.28;4989291;28;20180;-74
2022/02/15 03:49:20;;;;;;;10.37;6.60;;;;;;;7.52;78.80;100509.78;4989013;28;20195;-75
2022/02/15 03:51:50;;;;;;;7.87;6.13;;;;;;;7.53;78.60;100527.66;4989009;28;20239;-74
2022/02/15 03:54:16;;;;;;;9.30;6.13;;;;;;;7.53;78.36;100524.25;5005345;28;21055;-74
2022/02/15 03:56:41;;;;;;;6.97;5.63;;;;;;;7.53;78.52;100527.66;5005398;28;20783;-74
2022/02/15 03:59:08;;;;;;;8.40;5.83;;;;;;;7.48;79.43;100536.00;4988935;28;20545;-75
2022/02/15 04:01:34;;;;;;;9.57;6.07;;;;;;;7.41;78.85;100537.50;5005129;28;20215;-75
2022/02/15 04:04:00;;;;;;;9.77;6.40;;;;;;;7.38;79.37;100547.59;4989076;28;20203;-75
2022/02/15 04:06:25;;;;;;;8.00;5.83;;;;;;;7.35;80.24;100554.31;4989124;28;20724;-75
2022/02/15 04:08:50;;;;;;;8.87;6.13;;;;;;;7.34;80.19;100561.09;4990409;28;20372;-75
2022/02/15 04:11:16;;;;;;;5.60;5.10;;;;;;;7.32;80.24;100555.09;4989220;28;20191;-75
2022/02/15 04:13:41;;;;;;;8.80;5.43;;;;;;;7.27;80.36;100558.34;5005529;28;20195;-74
2022/02/15 04:16:10;;;;;;;7.23;5.20;;;;;;;7.28;80.19;100565.16;5005452;28;20224;-75
2022/02/15 04:18:43;;;;;;;6.93;4.80;;;;;;;7.29;81.18;100562.66;4988641;28;20278;-74
2022/02/15 04:21:13;;;;;;;6.63;5.07;;;;;;;7.28;80.48;100560.91;4989231;28;20215;-75
2022/02/15 04:23:40;;;;;;;7.20;5.10;;;;;;;7.26;80.82;100570.22;4988996;28;20191;-74
2022/02/15 04:26:06;;;;;;;6.63;5.20;;;;;;;7.25;81.15;100568.50;4988782;28;20207;-74
2022/02/15 04:28:36;;;;;;;6.87;5.67;;;;;;;7.26;81.23;100565.13;5008400;28;20952;-75
2022/02/15 04:31:07;;;;;;;9.67;5.73;;;;;;;7.20;80.78;100564.97;4994413;28;20672;-74
2022/02/15 04:33:33;;;;;;;7.40;5.40;;;;;;;7.14;81.25;100572.41;4992927;28;20270;-74
2022/02/15 04:35:59;;;;;;;7.50;5.57;;;;;;;7.12;81.36;100570.63;4992718;28;20219;-75
2022/02/15 04:38:25;;;;;;;9.30;5.80;;;;;;;7.07;81.83;100575.59;4992497;28;20187;-73
2022/02/15 04:40:53;;;;;;;9.17;5.93;;;;;;;7.06;81.64;100576.44;4992541;28;20624;-73
2022/02/15 04:43:25;;;;;;;14.13;6.63;;;;;;;6.95;82.81;100579.50;4992961;28;20180;-73
2022/02/15 04:45:51;;;;;;;8.53;5.83;;;;;;;6.93;83.32;100576.91;4992793;28;20710;-75
2022/02/15 04:48:18;;;;;;;7.00;5.57;;;;;;;6.89;84.48;100582.72;4976205;28;20650;-73
2022/02/15 04:50:43;;;;;;;8.90;5.97;;;;;;;6.80;84.19;100587.53;5008787;28;20222;-73
2022/02/15 04:53:09;;;;;;;7.67;6.13;;;;;;;6.76;84.21;100589.91;5008511;28;20204;-75
2022/02/15 04:55:34;;;;;;;9.50;6.30;;;;;;;6.77;84.70;100586.56;4992337;28;20278;-75
2022/02/15 04:58:02;;;;;;;10.27;6.80;;;;;;;6.75;85.10;100596.69;5008472;28;20326;-75
2022/02/15 05:00:35;;;;;;;9.17;6.60;;;;;;;6.66;85.52;100591.34;4992334;28;20211;-75
2022/02/15 05:03:33;;;;;;;8.10;6.53;;;;;;;6.64;85.98;100603.13;4988244;28;20188;-73
2022/02/15 05:06:00;;;;;;;7.53;6.20;;;;;;;6.61;85.84;100608.13;4976391;28;20619;-73
2022/02/15 05:08:27;;;;;;;8.93;6.63;;;;;;;6.59;85.87;100598.72;4991912;28;20322;-75
2022/02/15 05:10:59;;;;;;;8.47;5.87;;;;;;;6.55;85.86;100607.06;5008214;28;20748;-75
2022/02/15 05:13:30;;;;;;;8.17;6.67;;;;;;;6.56;86.18;100616.44;4976586;28;20184;-75
2022/02/15 05:16:18;;;;;;;7.97;6.17;;;;;;;6.60;86.06;100608.09;4992612;28;20196;-75
2022/02/15 05:18:53;;;;;;;8.30;6.40;;;;;;;6.62;85.84;100612.41;4976251;28;20658;-74
2022/02/15 05:21:23;;;;;;;7.30;6.23;;;;;;;6.63;85.73;100623.44;5006941;28;20226;-73
2022/02/15 05:23:54;;;;;;;9.33;6.93;;;;;;;6.66;86.36;100618.44;4990601;28;20194;-75
2022/02/15 05:26:24;;;;;;;9.10;6.90;;;;;;;6.65;85.89;100617.59;4990642;28;20296;-73
2022/02/15 05:28:59;;;;;;;8.13;6.60;;;;;;;6.69;86.44;100621.09;5006707;28;20187;-75
2022/02/15 05:31:29;;;;;;;10.33;6.53;;;;;;;6.70;86.31;100621.13;4990499;28;20199;-75
2022/02/15 05:33:54;;;;;;;9.50;7.23;;;;;;;6.67;87.12;100630.34;4990576;28;20179;-75
2022/02/15 05:36:19;;;;;;;11.57;7.17;;;;;;;6.68;86.42;100627.00;4974352;28;20258;-75
2022/02/15 05:38:47;;;;;;;8.83;6.40;;;;;;;6.68;86.90;100637.16;5006404;28;20241;-75
2022/02/15 05:41:14;;;;;;;8.87;6.63;;;;;;;6.62;87.37;100632.75;4990578;28;20212;-75
2022/02/15 05:43:40;;;;;;;9.67;6.80;;;;;;;6.59;87.17;100640.28;4990489;28;20194;-75
2022/02/15 05:46:10;;;;;;;7.73;6.03;;;;;;;6.53;87.17;100639.22;5006815;28;20187;-75
2022/02/15 05:48:41;;;;;;;9.73;6.73;;;;;;;6.46;87.63;100644.94;5006447;28;20745;-75
2022/02/15 05:51:24;;;;;;;9.03;7.50;;;;;;;6.44;88.43;100652.50;4990080;28;20204;-75
2022/02/15 05:53:55;;;;;;;9.77;6.93;;;;;;;6.38;88.25;100651.44;4990285;28;20191;-75
2022/02/15 05:56:25;;;;;;;9.73;6.80;;;;;;;6.29;88.85;100662.19;4990188;28;20217;-75
2022/02/15 05:59:09;;;;;;;10.47;7.53;;;;;;;6.27;88.99;100658.72;4989911;28;20187;-75
2022/02/15 06:01:52;;;;;;;10.47;6.67;;;;;;;6.28;89.55;100664.66;4991414;28;20214;-75
2022/02/15 06:04:19;;;;;;;12.80;7.27;;;;;;;6.30;89.31;100668.09;4990020;28;20563;-75
2022/02/15 06:06:51;;;;;;;11.57;7.83;;;;;;;6.34;89.64;100668.28;5006395;28;20242;-75
2022/02/15 06:09:18;;;;;;;11.03;7.60;;;;;;;6.36;89.43;100668.34;5005990;28;20188;-75
2022/02/15 06:11:45;;;;;;;9.23;6.90;;;;;;;6.39;89.23;100676.03;4989770;28;20246;-75
2022/02/15 06:14:11;;;;;;;10.47;6.93;;;;;;;6.41;89.77;100684.59;4989768;28;20219;-75
2022/02/15 06:16:36;;;;;;;9.70;7.00;;;;;;;6.37;89.66;100681.09;4989795;28;20691;-75
2022/02/15 06:19:11;;;;;;;12.40;8.03;;;;;;;6.39;89.65;100697.25;4952655;28;1064799;-75
2022/02/15 06:21:37;;;;;;;11.00;7.67;;;;;;;6.39;89.68;100688.75;4990548;28;20223;-75
2022/02/15 06:24:11;;;;;;;10.50;7.93;;;;;;;6.36;89.40;100696.31;5007021;28;20184;-75
2022/02/15 06:26:37;;;;;;;10.73;7.37;;;;;;;6.33;89.83;100703.81;4990680;28;20202;-75
2022/02/15 06:29:40;;;;;;;11.30;7.17;;;;;;;6.31;89.81;100705.47;4991727;28;20188;-75
2022/02/15 06:32:20;;;;;;;10.10;7.33;;;;;;;6.33;89.22;100708.91;4990438;28;20204;-75
2022/02/15 06:34:46;;;;;;;11.77;6.97;;;;;;;6.34;88.81;100706.41;5006787;28;20719;-75
2022/02/15 06:37:15;;;;;;;9.43;6.70;;;;;;;6.33;88.92;100713.97;4990402;28;20283;-75
2022/02/15 06:39:42;;;;;;;12.00;7.17;;;;;;;6.33;88.89;100716.53;4990422;28;20294;-75
2022/02/15 06:42:09;;;;;;;12.03;7.13;;;;;;;6.34;88.83;100728.41;5006655;28;20230;-75
2022/02/15 06:44:34;;;;;;;10.83;7.43;;;;;;;6.33;88.77;100734.31;4990281;28;20203;-75
2022/02/15 06:47:00;;;;;;;9.77;6.97;;;;;;;6.29;89.12;100730.81;4990204;28;20197;-76
2022/02/15 06:49:30;;;;;;;11.50;8.77;;;;;;;6.28;88.78;100733.31;4990705;28;20211;-75
2022/02/15 06:52:14;;;;;;;9.50;7.33;;;;;;;6.34;88.70;100739.47;4991357;28;20708;-75
2022/02/15 06:54:40;;;;;;;10.17;7.90;;;;;;;6.40;89.16;100733.75;4990188;28;20184;-75
2022/02/15 06:57:07;;;;;;;11.80;7.57;;;;;;;6.42;89.38;100739.72;4974316;28;20175;-75
2022/02/15 06:59:34;;;;;;;10.47;6.97;;;;;;;6.49;88.94;100747.59;5006244;28;20218;-75
2022/02/15 07:01:59;;;;;;;11.57;7.93;;;;;;;6.49;88.53;100741.69;4991473;28;20230;-74
2022/02/15 07:04:28;;;;;;;8.73;6.80;;;;;;;6.52;88.33;100751.94;4990165;28;20183;-75
2022/02/15 07:06:56;;;;;;;11.77;7.67;;;;;;;6.53;88.57;100754.53;4989929;28;20188;-75
2022/02/15 07:09:22;;;;;;;11.70;7.77;;;;;;;6.53;88.69;100759.63;5006044;28;20199;-75
2022/02/15 07:12:20;;;;;;;10.33;7.53;;;;;;;6.59;88.50;100772.53;4990356;28;20565;-75
2022/02/15 07:14:53;;;;;;;10.00;7.80;;;;;;;6.59;88.12;100774.22;4989969;28;20195;-75
2022/02/15 07:17:27;;;;;;;10.33;7.03;;;;;;;6.62;88.50;100782.81;4989841;28;20191;-75
2022/02/15 07:19:53;;;;;;;10.67;7.70;;;;;;;6.62;87.87;100779.41;5005171;28;20569;-74
2022/02/15 07:22:48;;;;;;;9.37;7.03;;;;;;;6.61;88.68;100772.59;4989972;28;20632;-75
2022/02/15 07:25:31;;;;;;;9.33;6.63;;;;;;;6.60;88.79;100781.03;4989644;28;20187;-75
2022/02/15 07:28:25;;;;;;;10.63;6.70;;;;;;;6.57;88.12;100780.94;4985700;28;20223;-75
2022/02/15 07:30:51;;;;;;;8.80;6.53;;;;;;;6.87;88.37;100793.00;5006233;28;20401;-75
2022/02/15 07:33:20;;;;;;;12.33;7.13;;;;;;;6.72;87.86;100796.72;5005837;28;20685;-75
2022/02/15 07:35:45;;;;;;;11.90;6.50;;;;;;;6.71;87.89;100795.84;4989380;28;20198;-75
2022/02/15 07:38:11;;;;;;;10.07;6.67;;;;;;;6.72;87.84;100809.47;4990438;28;20184;-75
2022/02/15 07:40:36;;;;;;;9.53;6.93;;;;;;;6.72;88.10;100806.91;4990517;28;20720;-75
2022/02/15 07:43:01;;;;;;;9.60;6.83;;;;;;;6.66;88.01;100802.47;4990516;28;20247;-75
2022/02/15 07:45:43;;;;;;;9.47;6.53;;;;;;;6.70;87.93;100804.31;4990644;28;20211;-75
2022/02/15 07:48:09;;;;;;;10.20;7.27;;;;;;;6.80;87.53;100815.63;4990289;28;20229;-75
2022/02/15 07:50:35;;;;;;;10.00;7.30;;;;;;;6.83;87.92;100823.38;4990551;28;20589;-75
2022/02/15 07:53:00;;;;;;;9.90;6.60;;;;;;;6.82;87.89;100821.66;4990298;28;20208;-75
2022/02/15 07:55:27;;;;;;;9.63;6.93;;;;;;;6.82;87.55;100824.22;4990467;28;20222;-75
2022/02/15 07:57:52;;;;;;;9.93;6.53;;;;;;;6.80;86.94;100829.25;5005593;28;20227;-75
2022/02/15 08:00:20;;;;;;;10.80;6.97;;;;;;;6.82;87.02;100831.84;4988888;28;20211;-75
2022/02/15 08:02:51;;;;;;;9.43;6.37;;;;;;;6.88;86.69;100837.13;4990305;28;20206;-75
2022/02/15 08:05:19;;;;;;;11.17;6.60;;;;;;;6.95;87.14;100832.28;4990419;28;20673;-75
2022/02/15 08:07:49;;;;;;;11.83;7.80;;;;;;;6.97;85.99;100830.69;4988928;28;20191;-75
2022/02/15 08:10:18;;;;;;;13.53;7.17;;;;;;;7.01;86.21;100826.56;4990468;28;20637;-75
2022/02/15 08:12:47;;;;;;;10.03;6.87;;;;;;;7.06;85.87;100830.09;4990221;28;20212;-75
2022/02/15 08:15:13;;;;;;;10.83;7.10;;;;;;;7.09;85.82;100830.22;4990213;28;20183;-75
2022/02/15 08:17:38;;;;;;;9.63;7.07;;;;;;;7.10;85.04;100832.78;4990132;28;20195;-75
2022/02/15 08:20:04;;;;;;;10.00;6.50;;;;;;;7.12;85.75;100837.94;4989444;28;20214;-75
2022/02/15 08:22:30;;;;;;;8.50;6.43;;;;;;;7.09;84.81;100835.31;4988736;28;20208;-75
2022/02/15 08:24:55;;;;;;;10.27;6.97;;;;;;;7.15;85.13;100846.56;4988799;28;20196;-75
2022/02/15 08:27:21;;;;;;;8.73;6.40;;;;;;;7.26;84.97;100852.84;4990071;28;20291;-75
2022/02/15 08:29:46;;;;;;;11.03;6.93;;;;;;;7.29;84.31;100859.72;4989923;28;20642;-75
2022/02/15 08:32:12;;;;;;;12.63;6.03;;;;;;;7.35;84.17;100852.28;4990010;28;20290;-75
2022/02/15 08:34:39;;;;;;;11.13;6.63;;;;;;;7.32;84.89;100855.59;4988740;28;20665;-75
2022/02/15 08:37:04;;;;;;;11.07;6.40;;;;;;;7.29;84.14;100863.16;4988745;28;20218;-75
2022/02/15 08:39:30;;;;;;;9.93;6.77;;;;;;;7.35;83.84;100862.47;4989842;28;20211;-75
2022/02/15 08:41:57;;;;;;;10.47;7.17;;;;;;;7.34;83.92;100863.28;4988675;28;20258;-75
2022/02/15 08:44:23;;;;;;;9.67;6.07;;;;;;;7.32;84.21;100868.31;4990008;28;20192;-75
2022/02/15 08:46:52;;;;;;;10.73;7.27;;;;;;;7.34;83.65;100873.47;4989976;28;20228;-75
2022/02/15 08:49:17;;;;;;;9.17;6.33;;;;;;;7.29;84.40;100873.34;4989516;28;20230;-75
2022/02/15 08:51:42;;;;;;;8.63;6.50;;;;;;;7.27;84.42;100874.97;4988471;28;20243;-75
2022/02/15 08:54:08;;;;;;;11.20;6.83;;;;;;;7.27;84.26;100869.88;5004909;28;20216;-75
2022/02/15 08:56:34;;;;;;;11.30;6.90;;;;;;;7.35;84.35;100873.53;4989878;28;20187;-75
2022/02/15 08:59:00;;;;;;;9.63;6.50;;;;;;;7.34;84.02;100881.13;4988226;28;20195;-75
2022/02/15 09:01:26;;;;;;;9.50;7.27;;;;;;;7.47;82.89;100876.44;4989627;28;20708;-75
2022/02/15 09:03:51;;;;;;;10.23;7.00;;;;;;;7.50;82.52;100883.31;4989624;28;20286;-75
2022/02/15 09:06:16;;;;;;;10.80;7.83;;;;;;;7.64;82.73;100872.75;4972278;28;20315;-76
2022/02/15 09:08:42;;;;;;;9.57;7.27;;;;;;;7.62;82.85;100876.97;4989637;28;20192;-75
2022/02/15 09:11:07;;;;;;;10.83;7.47;;;;;;;7.76;82.15;100883.34;4989722;28;20199;-75
2022/02/15 09:13:32;;;;;;;9.50;7.50;;;;;;;7.71;81.78;100890.00;4991063;28;20199;-75
2022/02/15 09:15:58;;;;;;;9.47;7.67;;;;;;;7.74;81.33;100899.41;4993282;28;20208;-75
2022/02/15 09:18:23;;;;;;;9.63;7.40;;;;;;;7.70;81.48;100895.88;4992678;28;20290;-75
2022/02/15 09:20:49;;;;;;;11.03;7.77;;;;;;;7.72;81.85;100888.28;4993086;28;20230;-75
2022/02/15 09:23:15;;;;;;;9.07;7.57;;;;;;;7.78;81.53;100893.59;4992011;28;20230;-75
2022/02/15 09:25:41;;;;;;;10.33;7.17;;;;;;;7.75;80.24;100883.31;4993204;28;20195;-75
2022/02/15 09:28:07;;;;;;;9.07;6.73;;;;;;;7.86;80.34;100893.00;4991979;28;20192;-75
2022/02/15 09:30:34;;;;;;;10.40;6.60;;;;;;;7.82;79.89;100901.38;4993299;28;20180;-75
2022/02/15 09:33:00;;;;;;;9.87;6.70;;;;;;;7.81;79.09;100899.66;4991684;28;20664;-75
2022/02/15 09:35:25;;;;;;;10.90;5.87;;;;;;;7.83;78.83;100915.00;4991574;28;20200;-75
2022/02/15 09:37:50;;;;;;;6.87;5.30;;;;;;;7.86;78.45;100903.22;4992869;28;20338;-74
2022/02/15 09:40:16;;;;;;;9.67;6.13;;;;;;;7.97;78.07;100904.38;4992763;28;20294;-75
2022/02/15 09:42:41;;;;;;;8.43;5.20;;;;;;;8.14;76.39;100902.34;4992737;28;20208;-75
2022/02/15 09:45:09;;;;;;;8.73;4.73;;;;;;;8.33;75.89;100917.41;4992814;28;20742;-75
2022/02/15 09:47:36;;;;;;;6.50;4.77;;;;;;;8.20;75.88;100905.09;4992677;28;20195;-75
2022/02/15 09:50:04;;;;;;;8.23;5.27;;;;;;;8.45;75.16;100908.44;4991166;28;20620;-74
2022/02/15 09:52:31;;;;;;;6.03;4.73;;;;;;;8.85;74.18;100913.81;4992538;28;20214;-75
2022/02/15 09:54:56;;;;;;;8.20;5.60;;;;;;;8.58;74.45;100917.31;4991297;28;20184;-75
2022/02/15 09:57:23;;;;;;;7.70;5.33;;;;;;;8.48;74.49;100916.16;4992512;28;20187;-75
2022/02/15 09:59:50;;;;;;;8.10;5.43;;;;;;;8.88;73.04;100920.69;4992212;28;20227;-75
2022/02/15 10:02:24;;;;;;;7.33;5.17;;;;;;;9.04;72.81;100905.81;4992860;28;20212;-75
2022/02/15 10:04:54;;;;;;;9.20;5.53;;;;;;;9.34;71.18;100906.59;4992445;28;20251;-75
2022/02/15 10:07:19;;;;;;;6.93;4.83;;;;;;;10.15;67.65;100907.72;4991145;28;20187;-75
2022/02/15 10:09:53;;;;;;;9.47;5.13;;;;;;;9.74;69.65;100911.88;4990911;28;20242;-75
2022/02/15 10:12:20;;;;;;;8.47;4.47;;;;;;;11.33;64.10;100897.25;4991018;28;20223;-75
2022/02/15 10:14:51;;;;;;;7.27;4.57;;;;;;;10.74;65.61;100907.28;4991156;28;20192;-73
2022/02/15 10:17:17;;;;;;;6.80;4.70;;;;;;;10.37;66.60;100902.25;4992222;28;20195;-73
2022/02/15 10:19:45;;;;;;;6.23;4.27;;;;;;;10.06;66.56;100920.31;4991681;28;20207;-73
2022/02/15 10:22:11;;;;;;;7.43;4.30;;;;;;;9.53;68.88;100921.56;4990723;28;20207;-75
2022/02/15 10:24:39;;;;;;;4.83;4.13;;;;;;;9.44;68.02;100921.34;5005841;28;20559;-75
2022/02/15 10:27:11;;;;;;;5.60;4.50;;;;;;;11.67;61.95;100903.84;4990802;28;20665;-75
2022/02/15 10:29:40;;;;;;;5.23;4.40;;;;;;;11.09;64.11;100914.78;4991740;28;20267;-76
2022/02/15 10:32:08;;;;;;;6.73;4.47;;;;;;;12.36;60.90;100918.53;4991785;28;20343;-76
2022/02/15 10:34:44;;;;;;;9.53;4.83;;;;;;;11.10;63.22;100920.78;4991803;28;20184;-75
2022/02/15 10:37:13;;;;;;;4.60;4.10;;;;;;;12.62;58.06;100913.72;4991847;28;20516;-75
2022/02/15 10:39:41;;;;;;;6.13;4.37;;;;;;;12.29;58.69;100915.88;4991851;28;20184;-75
2022/02/15 10:42:13;;;;;;;5.90;4.63;;;;;;;12.22;58.70;100911.53;4992234;28;20226;-75
2022/02/15 10:44:49;;;;;;;7.23;4.87;;;;;;;11.62;60.61;100913.16;4992275;28;20180;-75
2022/02/15 10:47:14;;;;;;;5.83;4.53;;;;;;;10.80;63.92;100925.31;5006919;28;20191;-75
2022/02/15 10:49:41;;;;;;;8.63;5.20;;;;;;;10.54;64.55;100921.34;4990424;28;20188;-75
2022/02/15 10:52:09;;;;;;;7.27;5.03;;;;;;;10.32;66.23;100917.47;4991713;28;20207;-75
2022/02/15 10:54:36;;;;;;;6.63;5.93;;;;;;;10.02;67.10;100923.59;4974087;28;20195;-75
2022/02/15 10:57:02;;;;;;;7.87;5.83;;;;;;;9.80;66.55;100929.03;4991563;28;20191;-75
2022/02/15 10:59:32;;;;;;;9.83;5.83;;;;;;;10.03;67.23;100920.19;4989957;28;20188;-75
2022/02/15 11:01:59;;;;;;;7.87;5.53;;;;;;;11.04;64.91;100911.28;4989934;28;20569;-76
2022/02/15 11:04:25;;;;;;;7.57;5.63;;;;;;;9.95;67.52;100927.69;4991787;28;20647;-76
2022/02/15 11:06:50;;;;;;;8.50;5.63;;;;;;;9.96;66.93;100929.41;4991598;28;20270;-76
2022/02/15 11:09:23;;;;;;;6.40;5.20;;;;;;;10.34;65.33;100927.75;4991074;28;20653;-76
2022/02/15 11:12:12;;;;;;;7.27;5.60;;;;;;;10.17;66.08;100926.50;4989936;28;20203;-75
2022/02/15 11:14:37;;;;;;;8.63;5.50;;;;;;;10.20;65.45;100924.91;4989901;28;20190;-75
2022/02/15 11:17:09;;;;;;;9.20;5.90;;;;;;;10.30;66.08;100916.59;4991167;28;20599;-76
2022/02/15 11:19:38;;;;;;;9.53;5.93;;;;;;;9.73;66.66;100933.13;4990592;28;20187;-76
2022/02/15 11:22:09;;;;;;;8.13;5.47;;;;;;;10.74;64.24;100935.44;4989603;28;20219;-75
2022/02/15 11:24:39;;;;;;;7.97;5.83;;;;;;;10.21;65.19;100938.56;4990889;28;20191;-75
2022/02/15 11:27:14;;;;;;;11.00;6.17;;;;;;;9.87;67.70;100942.00;4989512;28;20664;-75
2022/02/15 11:29:52;;;;;;;7.00;5.77;;;;;;;9.67;68.26;100943.22;4989544;28;20558;-76
2022/02/15 11:32:22;;;;;;;9.87;6.33;;;;;;;9.59;67.89;100939.59;4990786;28;20203;-73
2022/02/15 11:34:48;;;;;;;9.57;5.93;;;;;;;9.44;68.72;100938.38;4990735;28;20657;-76
2022/02/15 11:37:22;;;;;;;11.83;6.67;;;;;;;9.50;68.69;100935.97;4990855;28;20175;-75
2022/02/15 11:40:08;;;;;;;7.83;6.20;;;;;;;9.41;69.71;100934.06;4990703;28;20716;-75